| time (UTC) | temp F | wind direction | speed MPH | gust MPH | rain 1hr in | rain 24hr in | rain mn in | humidity % | barometer mb |
| 20260508080545 | 36 | 159 | 0.0 | 0.0 | 0.03 | 0.08 | 0.08 | 93 | 1011.3 |
| 20260508080018 | 36 | 203 | 0.0 | 0.0 | 0.05 | 0.08 | 0.08 | 93 | 1011.4 |
| 20260508075534 | 36 | 196 | 0.0 | 0.0 | 0.06 | 0.08 | 0.08 | 93 | 1011.4 |
| 20260508075051 | 36 | 181 | 0.0 | 0.0 | 0.07 | 0.08 | 0.08 | 92 | 1011.4 |
| 20260508074523 | 36 | 162 | 0.0 | 0.0 | 0.08 | 0.08 | 0.08 | 92 | 1011.4 |
| 20260508074035 | 36 | 235 | 0.0 | 0.0 | 0.08 | 0.08 | 0.08 | 92 | 1011.3 |
| 20260508073552 | 36 | 212 | 0.0 | 0.0 | 0.08 | 0.08 | 0.08 | 92 | 1011.3 |
| 20260508073112 | 36 | 162 | 0.0 | 0.0 | 0.08 | 0.08 | 0.08 | 92 | 1011.3 |
| 20260508072517 | 36 | 181 | 0.0 | 0.0 | 0.07 | 0.07 | 0.07 | 92 | 1011.4 |
| 20260508072033 | 37 | 230 | 0.0 | 0.0 | 0.06 | 0.06 | 0.06 | 92 | 1011.5 |
| 20260508071556 | 37 | 262 | 0.0 | 0.0 | 0.06 | 0.06 | 0.06 | 91 | 1011.5 |
| 20260508071111 | 37 | 278 | 0.0 | 0.0 | 0.05 | 0.05 | 0.05 | 91 | 1011.5 |
| 20260508070632 | 37 | 292 | 0.0 | 0.0 | 0.05 | 0.05 | 0.05 | 90 | 1011.5 |
| 20260508070024 | 38 | 333 | 0.0 | 0.0 | 0.03 | 0.03 | 0.03 | 89 | 1011.5 |
| 20260508065543 | 38 | 292 | 0.0 | 5.0 | 0.02 | 0.02 | 0.02 | 87 | 1011.4 |
| 20260508065059 | 39 | 337 | 0.0 | 5.0 | 0.01 | 0.01 | 0.01 | 85 | 1011.4 |
| 20260508064511 | 40 | 24 | 0.0 | 5.0 | 0.00 | 0.00 | 0.00 | 82 | 1011.2 |
| 20260508064021 | 40 | 240 | 0.0 | 5.0 | 0.00 | 0.00 | 0.00 | 80 | 1011.1 |
| 20260508063538 | 40 | 298 | 0.0 | 1.0 | 0.00 | 0.00 | 0.00 | 78 | 1011.1 |
| 20260508063007 | 40 | 293 | 0.0 | 1.0 | 0.00 | 0.00 | 0.00 | 76 | 1011.1 |
| 20260508062525 | 40 | 296 | 0.0 | 0.0 | 0.00 | 0.00 | 0.00 | 75 | 1011.0 |
| 20260508062043 | 41 | 294 | 0.0 | 0.0 | 0.00 | 0.00 | 0.00 | 74 | 1010.9 |
| 20260508061509 | 41 | 303 | 0.0 | 0.0 | 0.00 | 0.00 | 0.00 | 73 | 1010.8 |
| 20260508061030 | 41 | 276 | 0.0 | 0.0 | 0.00 | 0.00 | 0.00 | 72 | 1010.8 |
| 20260508060551 | 41 | 268 | 0.0 | 0.0 | 0.00 | 0.00 | 0.00 | 71 | 1010.8 |
| 20260508060106 | 41 | 280 | 0.0 | 0.0 | 0.00 | 0.00 | 0.00 | 71 | 1010.8 |
| 20260508055513 | 41 | 278 | 0.0 | 0.0 | 0.00 | 0.00 | 0.00 | 69 | 1010.8 |
| 20260508055035 | 41 | 293 | 0.0 | 0.0 | 0.00 | 0.00 | 0.00 | 68 | 1010.7 |
| 20260508054510 | 41 | 264 | 0.0 | 0.0 | 0.00 | 0.00 | 0.00 | 68 | 1010.6 |
| 20260508054030 | 41 | 293 | 0.0 | 0.0 | 0.00 | 0.00 | 0.00 | 67 | 1010.6 |
| 20260508053552 | 41 | 290 | 0.0 | 0.0 | 0.00 | 0.00 | 0.00 | 67 | 1010.6 |
| 20260508053010 | 41 | 293 | 0.0 | 0.0 | 0.00 | 0.00 | 0.00 | 68 | 1010.7 |
| 20260508052530 | 41 | 245 | 0.0 | 0.0 | 0.00 | 0.00 | 0.00 | 68 | 1010.7 |
| 20260508052049 | 41 | 247 | 0.0 | 0.0 | 0.00 | 0.00 | 0.00 | 67 | 1010.7 |
| 20260508051515 | 41 | 221 | 0.0 | 0.0 | 0.00 | 0.00 | 0.00 | 69 | 1010.8 |
| 20260508051034 | 41 | 247 | 0.0 | 0.0 | 0.00 | 0.00 | 0.00 | 68 | 1010.7 |
| 20260508050550 | 41 | 255 | 0.0 | 0.0 | 0.00 | 0.00 | 0.00 | 69 | 1010.9 |
| 20260508050110 | 40 | 200 | 0.0 | 0.0 | 0.00 | 0.00 | 0.00 | 69 | 1010.9 |
| 20260508045625 | 40 | 175 | 0.0 | 0.0 | 0.00 | 0.00 | 0.00 | 71 | 1010.9 |
| 20260508045009 | 40 | 172 | 0.0 | 0.0 | 0.00 | 0.00 | 0.00 | 71 | 1010.8 |
| 20260508044558 | 40 | 167 | 0.0 | 0.0 | 0.00 | 0.00 | 0.00 | 71 | 1010.8 |
| 20260508044108 | 40 | 167 | 0.0 | 0.0 | 0.00 | 0.00 | 0.00 | 71 | 1010.8 |
| 20260508043627 | 40 | 154 | 0.0 | 0.0 | 0.00 | 0.00 | 0.00 | 70 | 1010.8 |
| 20260508043044 | 40 | 139 | 0.0 | 0.0 | 0.00 | 0.00 | 0.00 | 71 | 1010.7 |
| 20260508042601 | 39 | 140 | 0.0 | 0.0 | 0.00 | 0.00 | 0.00 | 72 | 1010.7 |
| 20260508042121 | 39 | 126 | 0.0 | 0.0 | 0.00 | 0.00 | 0.00 | 75 | 1010.8 |
| 20260508041511 | 39 | 126 | 0.0 | 0.0 | 0.00 | 0.00 | 0.00 | 74 | 1010.8 |
| 20260508041027 | 39 | 126 | 0.0 | 0.0 | 0.00 | 0.00 | 0.00 | 75 | 1010.7 |
| 20260508040544 | 39 | 126 | 0.0 | 0.0 | 0.00 | 0.00 | 0.00 | 74 | 1010.6 |
| 20260508040120 | 39 | 128 | 0.0 | 0.0 | 0.00 | 0.00 | 0.00 | 74 | 1010.7 |
| 20260508035522 | 39 | 152 | 0.0 | 0.0 | 0.00 | 0.00 | 0.00 | 74 | 1010.8 |
| 20260508035036 | 38 | 145 | 0.0 | 0.0 | 0.00 | 0.00 | 0.00 | 74 | 1010.7 |
| 20260508034503 | 38 | 171 | 0.0 | 0.0 | 0.00 | 0.00 | 0.00 | 75 | 1010.8 |
| 20260508034020 | 38 | 134 | 0.0 | 0.0 | 0.00 | 0.00 | 0.00 | 75 | 1010.8 |
| 20260508033541 | 38 | 124 | 0.0 | 0.0 | 0.00 | 0.00 | 0.00 | 73 | 1010.7 |
| 20260508033024 | 39 | 117 | 0.0 | 0.0 | 0.00 | 0.00 | 0.00 | 72 | 1010.6 |
| 20260508032543 | 39 | 147 | 0.0 | 0.0 | 0.00 | 0.00 | 0.00 | 71 | 1010.6 |
| 20260508032100 | 39 | 145 | 0.0 | 0.0 | 0.00 | 0.00 | 0.00 | 69 | 1010.6 |
| 20260508031611 | 40 | 186 | 0.0 | 0.0 | 0.00 | 0.00 | 0.00 | 68 | 1010.5 |
| 20260508031019 | 40 | 169 | 0.0 | 0.0 | 0.00 | 0.00 | 0.00 | 67 | 1010.5 |
| 20260508030534 | 40 | 170 | 0.0 | 0.0 | 0.00 | 0.00 | 0.00 | 66 | 1010.4 |
| 20260508030116 | 40 | 283 | 0.0 | 0.0 | 0.00 | 0.00 | 0.00 | 65 | 1010.3 |
| 20260508025518 | 40 | 283 | 0.0 | 0.0 | 0.00 | 0.00 | 0.00 | 64 | 1010.1 |
| 20260508025039 | 40 | 283 | 0.0 | 0.0 | 0.00 | 0.00 | 0.00 | 64 | 1010.1 |
| 20260508024609 | 41 | 283 | 0.0 | 0.0 | 0.00 | 0.00 | 0.00 | 63 | 1010.0 |
| 20260508024130 | 41 | 283 | 0.0 | 0.0 | 0.00 | 0.00 | 0.00 | 63 | 1009.9 |
| 20260508023517 | 41 | 283 | 0.0 | 0.0 | 0.00 | 0.00 | 0.00 | 64 | 1009.9 |
| 20260508023008 | 41 | 283 | 0.0 | 0.0 | 0.00 | 0.00 | 0.00 | 64 | 1010.0 |
| 20260508022520 | 41 | 283 | 0.0 | 0.0 | 0.00 | 0.00 | 0.00 | 63 | 1010.1 |
| 20260508022041 | 42 | 283 | 0.0 | 0.0 | 0.00 | 0.00 | 0.00 | 62 | 1010.2 |
| 20260508021522 | 42 | 283 | 0.0 | 0.0 | 0.00 | 0.00 | 0.00 | 62 | 1010.3 |
| 20260508021048 | 42 | 283 | 0.0 | 0.0 | 0.00 | 0.00 | 0.00 | 62 | 1010.3 |
| 20260508020600 | 42 | 283 | 0.0 | 0.0 | 0.00 | 0.00 | 0.00 | 60 | 1010.4 |
| 20260508020002 | 42 | 283 | 0.0 | 0.0 | 0.00 | 0.00 | 0.00 | 59 | 1010.4 |
| 20260508015522 | 43 | 283 | 0.0 | 0.0 | 0.00 | 0.00 | 0.00 | 58 | 1010.3 |
| 20260508015042 | 43 | 283 | 0.0 | 0.0 | 0.00 | 0.00 | 0.00 | 57 | 1010.3 |
| 20260508014624 | 43 | 283 | 0.0 | 0.0 | 0.00 | 0.00 | 0.00 | 57 | 1010.3 |
| 20260508014017 | 44 | 283 | 0.0 | 0.0 | 0.00 | 0.00 | 0.00 | 56 | 1010.3 |
| 20260508013535 | 44 | 283 | 0.0 | 0.0 | 0.00 | 0.00 | 0.00 | 55 | 1010.4 |
| 20260508013114 | 44 | 283 | 0.0 | 0.0 | 0.00 | 0.00 | 0.00 | 55 | 1010.4 |
| 20260508012519 | 45 | 291 | 0.0 | 0.0 | 0.00 | 0.00 | 0.00 | 53 | 1010.4 |
| 20260508012041 | 45 | 304 | 0.0 | 0.0 | 0.00 | 0.00 | 0.00 | 53 | 1010.3 |
| 20260508011622 | 45 | 296 | 0.0 | 0.0 | 0.00 | 0.00 | 0.00 | 53 | 1010.3 |
| 20260508011012 | 45 | 253 | 0.0 | 0.0 | 0.00 | 0.00 | 0.00 | 52 | 1010.3 |
| 20260508010532 | 45 | 285 | 0.0 | 0.0 | 0.00 | 0.00 | 0.00 | 52 | 1010.3 |
| 20260508010107 | 45 | 310 | 0.0 | 0.0 | 0.00 | 0.00 | 0.00 | 52 | 1010.3 |
| 20260508005516 | 45 | 296 | 0.0 | 0.0 | 0.00 | 0.00 | 0.00 | 52 | 1010.2 |
| 20260508005034 | 45 | 303 | 0.0 | 0.0 | 0.00 | 0.00 | 0.00 | 52 | 1010.2 |
| 20260508004602 | 45 | 275 | 0.0 | 0.0 | 0.00 | 0.00 | 0.00 | 52 | 1010.2 |
| 20260508004128 | 45 | 293 | 0.0 | 0.0 | 0.00 | 0.00 | 0.00 | 53 | 1010.2 |
| 20260508003515 | 45 | 269 | 0.0 | 0.0 | 0.00 | 0.00 | 0.00 | 53 | 1010.2 |
| 20260508003104 | 45 | 299 | 0.0 | 0.0 | 0.00 | 0.00 | 0.00 | 52 | 1010.1 |
| 20260508002608 | 45 | 285 | 0.0 | 0.0 | 0.00 | 0.00 | 0.00 | 52 | 1010.0 |
| 20260508002129 | 45 | 292 | 0.0 | 0.0 | 0.00 | 0.00 | 0.00 | 52 | 1010.0 |
| 20260508001544 | 45 | 305 | 0.0 | 0.0 | 0.00 | 0.00 | 0.00 | 52 | 1009.9 |
| 20260508001108 | 45 | 325 | 0.0 | 0.0 | 0.00 | 0.00 | 0.00 | 51 | 1009.9 |
| 20260508000623 | 46 | 276 | 0.0 | 0.0 | 0.00 | 0.00 | 0.00 | 50 | 1009.8 |
| 20260508000022 | 46 | 309 | 0.0 | 0.0 | 0.00 | 0.00 | 0.00 | 50 | 1009.8 |
| 20260507235538 | 46 | 359 | 0.0 | 0.0 | 0.00 | 0.00 | 0.00 | 50 | 1009.8 |
| 20260507235058 | 46 | 337 | 0.0 | 0.0 | 0.00 | 0.00 | 0.00 | 50 | 1009.9 |
| 20260507234506 | 46 | 278 | 0.0 | 0.0 | 0.00 | 0.00 | 0.00 | 50 | 1009.8 |
| 20260507234026 | 46 | 323 | 0.0 | 0.0 | 0.00 | 0.00 | 0.00 | 49 | 1009.8 |
| 20260507233544 | 46 | 327 | 0.0 | 0.0 | 0.00 | 0.00 | 0.00 | 49 | 1009.7 |
| 20260507233125 | 47 | 344 | 0.0 | 0.0 | 0.00 | 0.00 | 0.00 | 48 | 1009.7 |
| 20260507232518 | 47 | 5 | 0.0 | 0.0 | 0.00 | 0.00 | 0.00 | 47 | 1009.6 |
| 20260507232038 | 47 | 347 | 0.0 | 0.0 | 0.00 | 0.00 | 0.00 | 46 | 1009.7 |
| 20260507231618 | 48 | 328 | 0.0 | 1.0 | 0.00 | 0.00 | 0.00 | 46 | 1009.7 |
| 20260507231016 | 48 | 299 | 0.0 | 1.0 | 0.00 | 0.00 | 0.00 | 45 | 1009.7 |
| 20260507230536 | 49 | 307 | 0.0 | 2.0 | 0.00 | 0.00 | 0.00 | 45 | 1009.7 |
| 20260507230008 | 48 | 40 | 0.0 | 2.0 | 0.00 | 0.00 | 0.00 | 45 | 1009.7 |
| 20260507225524 | 48 | 18 | 0.0 | 0.0 | 0.00 | 0.00 | 0.00 | 47 | 1009.7 |
| 20260507225044 | 48 | 249 | 0.0 | 0.0 | 0.00 | 0.00 | 0.00 | 46 | 1009.7 |
| 20260507224506 | 48 | 351 | 0.0 | 0.0 | 0.00 | 0.00 | 0.00 | 45 | 1009.6 |
| 20260507224027 | 48 | 39 | 0.0 | 1.0 | 0.00 | 0.00 | 0.00 | 46 | 1009.6 |
| 20260507223545 | 48 | 344 | 0.0 | 6.0 | 0.00 | 0.00 | 0.00 | 46 | 1009.6 |
| 20260507223007 | 48 | 271 | 0.0 | 6.0 | 0.00 | 0.00 | 0.00 | 45 | 1009.7 |
| 20260507222523 | 49 | 15 | 0.0 | 1.0 | 0.00 | 0.00 | 0.00 | 45 | 1009.6 |
| 20260507222042 | 49 | 259 | 0.0 | 12.0 | 0.00 | 0.00 | 0.00 | 44 | 1009.5 |
| 20260507221548 | 49 | 69 | 0.0 | 12.0 | 0.00 | 0.00 | 0.00 | 42 | 1009.6 |
| 20260507221106 | 50 | 42 | 0.0 | 6.0 | 0.00 | 0.00 | 0.00 | 44 | 1009.5 |
| 20260507220626 | 50 | 285 | 0.0 | 12.0 | 0.00 | 0.00 | 0.00 | 43 | 1009.6 |
| 20260507220039 | 50 | 290 | 1.0 | 11.0 | 0.00 | 0.00 | 0.00 | 43 | 1009.6 |
| 20260507215559 | 50 | 314 | 0.0 | 6.0 | 0.00 | 0.00 | 0.00 | 43 | 1009.6 |
| 20260507215115 | 50 | 27 | 0.0 | 12.0 | 0.00 | 0.00 | 0.00 | 43 | 1009.6 |
| 20260507214510 | 50 | 295 | 2.0 | 12.0 | 0.00 | 0.00 | 0.00 | 42 | 1009.6 |
| 20260507214026 | 50 | 309 | 0.0 | 11.0 | 0.00 | 0.00 | 0.00 | 44 | 1009.7 |
| 20260507213546 | 49 | 293 | 2.0 | 11.0 | 0.00 | 0.00 | 0.00 | 43 | 1009.6 |
| 20260507213120 | 50 | 317 | 0.0 | 10.0 | 0.00 | 0.00 | 0.00 | 44 | 1009.7 |
| 20260507212518 | 50 | 294 | 0.0 | 7.0 | 0.00 | 0.00 | 0.00 | 43 | 1009.7 |
| 20260507212034 | 49 | 313 | 0.0 | 6.0 | 0.00 | 0.00 | 0.00 | 43 | 1009.8 |
| 20260507211616 | 49 | 314 | 0.0 | 7.0 | 0.00 | 0.00 | 0.00 | 44 | 1009.7 |
| 20260507211014 | 50 | 303 | 0.0 | 4.0 | 0.00 | 0.00 | 0.00 | 45 | 1009.7 |
| 20260507210536 | 50 | 299 | 0.0 | 5.0 | 0.00 | 0.00 | 0.00 | 44 | 1009.6 |
| 20260507210017 | 50 | 332 | 0.0 | 11.0 | 0.00 | 0.00 | 0.00 | 45 | 1009.7 |
| 20260507205525 | 50 | 299 | 0.0 | 12.0 | 0.00 | 0.00 | 0.00 | 45 | 1009.6 |
| 20260507205044 | 51 | 286 | 1.0 | 16.0 | 0.00 | 0.00 | 0.00 | 43 | 1009.6 |
| 20260507204505 | 51 | 309 | 2.0 | 13.0 | 0.00 | 0.00 | 0.00 | 40 | 1009.6 |
| 20260507204025 | 50 | 335 | 1.0 | 13.0 | 0.00 | 0.00 | 0.00 | 41 | 1009.6 |
| 20260507203538 | 49 | 268 | 0.0 | 9.0 | 0.00 | 0.00 | 0.00 | 42 | 1009.6 |
| 20260507203006 | 49 | 314 | 2.0 | 11.0 | 0.00 | 0.00 | 0.00 | 40 | 1009.6 |
| 20260507202517 | 49 | 328 | 1.0 | 12.0 | 0.00 | 0.00 | 0.00 | 41 | 1009.7 |
| 20260507202038 | 50 | 304 | 2.0 | 15.0 | 0.00 | 0.00 | 0.00 | 40 | 1009.7 |
| 20260507201517 | 50 | 306 | 0.0 | 15.0 | 0.00 | 0.00 | 0.00 | 41 | 1009.7 |
| 20260507201034 | 50 | 266 | 1.0 | 10.0 | 0.00 | 0.00 | 0.00 | 43 | 1009.7 |
| 20260507200550 | 51 | 320 | 2.0 | 9.0 | 0.00 | 0.00 | 0.00 | 43 | 1009.7 |
| 20260507200122 | 51 | 304 | 0.0 | 15.0 | 0.00 | 0.00 | 0.00 | 46 | 1009.7 |
| 20260507195518 | 51 | 305 | 4.0 | 15.0 | 0.00 | 0.03 | 0.00 | 44 | 1009.8 |
| 20260507195036 | 51 | 299 | 0.0 | 6.0 | 0.00 | 0.03 | 0.00 | 47 | 1009.8 |
| 20260507194512 | 51 | 281 | 0.0 | 16.0 | 0.00 | 0.03 | 0.00 | 48 | 1009.8 |
| 20260507194032 | 50 | 283 | 2.0 | 16.0 | 0.00 | 0.03 | 0.00 | 47 | 1010.0 |
| 20260507193548 | 50 | 266 | 0.0 | 9.0 | 0.00 | 0.03 | 0.00 | 49 | 1009.9 |
| 20260507193024 | 50 | 296 | 0.0 | 9.0 | 0.00 | 0.03 | 0.00 | 49 | 1010.1 |
| 20260507192528 | 49 | 294 | 0.0 | 13.0 | 0.00 | 0.03 | 0.00 | 48 | 1010.1 |
| 20260507192042 | 49 | 273 | 0.0 | 13.0 | 0.00 | 0.03 | 0.00 | 47 | 1010.2 |
| 20260507191621 | 49 | 306 | 0.0 | 14.0 | 0.00 | 0.03 | 0.00 | 50 | 1010.2 |
| 20260507191011 | 49 | 309 | 0.0 | 14.0 | 0.00 | 0.03 | 0.00 | 48 | 1010.4 |
| 20260507190534 | 49 | 10 | 1.0 | 13.0 | 0.00 | 0.03 | 0.00 | 51 | 1010.5 |
| 20260507190010 | 49 | 287 | 0.0 | 11.0 | 0.00 | 0.03 | 0.00 | 49 | 1010.6 |
| 20260507185528 | 49 | 263 | 0.0 | 11.0 | 0.00 | 0.05 | 0.00 | 48 | 1010.6 |
| 20260507185045 | 49 | 341 | 3.0 | 16.0 | 0.00 | 0.05 | 0.00 | 49 | 1010.6 |
| 20260507184617 | 49 | 276 | 3.0 | 19.0 | 0.00 | 0.05 | 0.00 | 51 | 1010.5 |
| 20260507184032 | 50 | 273 | 1.0 | 19.0 | 0.00 | 0.05 | 0.00 | 50 | 1010.6 |
| 20260507183548 | 49 | 306 | 2.0 | 11.0 | 0.00 | 0.05 | 0.00 | 51 | 1010.5 |
| 20260507183032 | 49 | 252 | 0.0 | 1.0 | 0.00 | 0.05 | 0.00 | 54 | 1010.6 |
| 20260507182530 | 48 | 278 | 0.0 | 10.0 | 0.00 | 0.05 | 0.00 | 53 | 1010.7 |
| 20260507182050 | 49 | 276 | 1.0 | 10.0 | 0.00 | 0.05 | 0.00 | 53 | 1010.8 |
| 20260507181502 | 49 | 302 | 0.0 | 5.0 | 0.00 | 0.05 | 0.00 | 54 | 1010.8 |
| 20260507181026 | 49 | 277 | 0.0 | 4.0 | 0.00 | 0.05 | 0.00 | 56 | 1011.0 |
| 20260507180539 | 49 | 309 | 0.0 | 1.0 | 0.00 | 0.05 | 0.00 | 57 | 1010.9 |
| 20260507180113 | 48 | 245 | 0.0 | 13.0 | 0.00 | 0.05 | 0.00 | 56 | 1010.9 |
| 20260507175518 | 49 | 309 | 2.0 | 13.0 | 0.00 | 0.05 | 0.00 | 53 | 1011.0 |
| 20260507175038 | 49 | 299 | 0.0 | 12.0 | 0.00 | 0.05 | 0.00 | 53 | 1010.9 |
| 20260507174509 | 49 | 316 | 2.0 | 12.0 | 0.00 | 0.05 | 0.00 | 54 | 1011.1 |
| 20260507174028 | 49 | 240 | 0.0 | 10.0 | 0.00 | 0.05 | 0.00 | 53 | 1011.0 |
| 20260507173547 | 48 | 306 | 0.0 | 11.0 | 0.00 | 0.05 | 0.00 | 57 | 1011.1 |
| 20260507173019 | 49 | 323 | 0.0 | 6.0 | 0.00 | 0.05 | 0.00 | 61 | 1011.2 |
| 20260507172530 | 48 | 271 | 0.0 | 11.0 | 0.00 | 0.05 | 0.00 | 57 | 1011.1 |
| 20260507172048 | 48 | 307 | 0.0 | 11.0 | 0.00 | 0.05 | 0.00 | 59 | 1011.1 |
| 20260507171514 | 48 | 241 | 0.0 | 10.0 | 0.00 | 0.05 | 0.00 | 57 | 1011.1 |
| 20260507171034 | 48 | 293 | 1.0 | 10.0 | 0.00 | 0.05 | 0.00 | 59 | 1011.2 |
| 20260507170557 | 47 | 289 | 1.0 | 8.0 | 0.00 | 0.05 | 0.00 | 59 | 1011.2 |
| 20260507170019 | 47 | 248 | 0.0 | 11.0 | 0.00 | 0.05 | 0.00 | 60 | 1011.3 |
| 20260507165541 | 47 | 231 | 0.0 | 11.0 | 0.00 | 0.08 | 0.00 | 59 | 1011.3 |
| 20260507165058 | 47 | 338 | 3.0 | 11.0 | 0.00 | 0.08 | 0.00 | 60 | 1011.4 |
| 20260507164502 | 47 | 333 | 1.0 | 11.0 | 0.00 | 0.08 | 0.00 | 60 | 1011.4 |
| 20260507164027 | 47 | 273 | 0.0 | 1.0 | 0.00 | 0.08 | 0.00 | 61 | 1011.5 |
| 20260507163534 | 47 | 268 | 0.0 | 12.0 | 0.00 | 0.08 | 0.00 | 63 | 1011.4 |
| 20260507163012 | 47 | 277 | 1.0 | 12.0 | 0.00 | 0.08 | 0.00 | 60 | 1011.7 |
| 20260507162526 | 47 | 310 | 0.0 | 4.0 | 0.00 | 0.08 | 0.00 | 62 | 1011.7 |
| 20260507162046 | 47 | 281 | 0.0 | 9.0 | 0.00 | 0.08 | 0.00 | 63 | 1011.8 |
| 20260507161517 | 46 | 261 | 0.0 | 9.0 | 0.00 | 0.08 | 0.00 | 62 | 1011.8 |
| 20260507161030 | 46 | 209 | 0.0 | 0.0 | 0.00 | 0.08 | 0.00 | 66 | 1011.9 |
| 20260507160548 | 45 | 297 | 0.0 | 0.0 | 0.00 | 0.08 | 0.00 | 66 | 1012.0 |
| 20260507160003 | 45 | 323 | 0.0 | 0.0 | 0.00 | 0.08 | 0.00 | 65 | 1012.0 |
| 20260507155524 | 44 | 333 | 0.0 | 7.0 | 0.00 | 0.10 | 0.00 | 65 | 1012.1 |
| 20260507155040 | 44 | 272 | 1.0 | 7.0 | 0.00 | 0.10 | 0.00 | 65 | 1012.1 |
| 20260507154551 | 45 | 316 | 0.0 | 1.0 | 0.00 | 0.10 | 0.00 | 66 | 1012.1 |
| 20260507154110 | 45 | 327 | 0.0 | 1.0 | 0.00 | 0.10 | 0.00 | 67 | 1012.2 |
| 20260507153627 | 44 | 290 | 0.0 | 1.0 | 0.00 | 0.10 | 0.00 | 69 | 1012.2 |
| 20260507153032 | 43 | 313 | 0.0 | 0.0 | 0.00 | 0.10 | 0.00 | 67 | 1012.3 |
| 20260507152546 | 43 | 309 | 0.0 | 0.0 | 0.00 | 0.10 | 0.00 | 67 | 1012.4 |
| 20260507152058 | 44 | 29 | 0.0 | 4.0 | 0.00 | 0.10 | 0.00 | 67 | 1012.4 |
| 20260507151516 | 44 | 256 | 0.0 | 1.0 | 0.00 | 0.10 | 0.00 | 67 | 1012.3 |
| 20260507151037 | 44 | 317 | 0.0 | 1.0 | 0.00 | 0.10 | 0.00 | 66 | 1012.4 |
| 20260507150556 | 44 | 338 | 0.0 | 1.0 | 0.00 | 0.10 | 0.00 | 66 | 1012.3 |
| 20260507150028 | 45 | 248 | 0.0 | 10.0 | 0.00 | 0.10 | 0.00 | 66 | 1012.3 |
| 20260507145545 | 45 | 275 | 1.0 | 9.0 | 0.00 | 0.15 | 0.00 | 68 | 1012.2 |
| 20260507145059 | 44 | 291 | 0.0 | 1.0 | 0.00 | 0.15 | 0.00 | 67 | 1012.2 |
| 20260507144608 | 44 | 255 | 0.0 | 4.0 | 0.00 | 0.15 | 0.00 | 66 | 1012.1 |
| 20260507144014 | 44 | 280 | 0.0 | 8.0 | 0.00 | 0.15 | 0.00 | 65 | 1012.3 |
| 20260507143533 | 44 | 287 | 0.0 | 5.0 | 0.00 | 0.15 | 0.00 | 67 | 1012.3 |
| 20260507143006 | 43 | 309 | 0.0 | 5.0 | 0.00 | 0.15 | 0.00 | 66 | 1012.4 |
| 20260507142520 | 44 | 317 | 0.0 | 7.0 | 0.00 | 0.15 | 0.00 | 66 | 1012.4 |
| 20260507142040 | 44 | 257 | 0.0 | 7.0 | 0.00 | 0.15 | 0.00 | 66 | 1012.4 |
| 20260507141510 | 44 | 307 | 0.0 | 8.0 | 0.00 | 0.15 | 0.00 | 66 | 1012.5 |
| 20260507141030 | 44 | 338 | 0.0 | 8.0 | 0.00 | 0.15 | 0.00 | 66 | 1012.6 |
| 20260507140550 | 44 | 317 | 0.0 | 6.0 | 0.00 | 0.15 | 0.00 | 67 | 1012.5 |
| 20260507140007 | 43 | 259 | 0.0 | 6.0 | 0.00 | 0.15 | 0.00 | 67 | 1012.5 |
| 20260507135526 | 43 | 290 | 0.0 | 1.0 | 0.00 | 0.24 | 0.00 | 68 | 1012.5 |
| 20260507135045 | 43 | 262 | 0.0 | 5.0 | 0.00 | 0.24 | 0.00 | 67 | 1012.5 |
| 20260507134521 | 43 | 301 | 0.0 | 5.0 | 0.00 | 0.24 | 0.00 | 66 | 1012.5 |
| 20260507134037 | 43 | 296 | 0.0 | 7.0 | 0.00 | 0.24 | 0.00 | 67 | 1012.5 |
| 20260507133558 | 43 | 240 | 0.0 | 7.0 | 0.00 | 0.24 | 0.00 | 67 | 1012.5 |
| 20260507133012 | 43 | 276 | 0.0 | 1.0 | 0.00 | 0.24 | 0.00 | 67 | 1012.5 |
| 20260507132525 | 43 | 42 | 0.0 | 8.0 | 0.00 | 0.24 | 0.00 | 69 | 1012.5 |
| 20260507132045 | 42 | 277 | 0.0 | 7.0 | 0.00 | 0.24 | 0.00 | 70 | 1012.6 |
| 20260507131529 | 42 | 271 | 0.0 | 7.0 | 0.00 | 0.24 | 0.00 | 68 | 1012.7 |
| 20260507131044 | 42 | 261 | 0.0 | 8.0 | 0.00 | 0.24 | 0.00 | 68 | 1012.8 |
| 20260507130557 | 42 | 302 | 0.0 | 8.0 | 0.00 | 0.24 | 0.00 | 68 | 1012.7 |
| 20260507130010 | 42 | 294 | 0.0 | 1.0 | 0.00 | 0.24 | 0.00 | 71 | 1012.8 |
| 20260507125522 | 42 | 294 | 0.0 | 1.0 | 0.00 | 0.30 | 0.00 | 73 | 1012.7 |
| 20260507125045 | 41 | 294 | 0.0 | 0.0 | 0.00 | 0.30 | 0.00 | 71 | 1012.6 |
| 20260507124623 | 41 | 331 | 0.0 | 0.0 | 0.00 | 0.30 | 0.00 | 70 | 1012.7 |
| 20260507124016 | 41 | 269 | 0.0 | 0.0 | 0.00 | 0.30 | 0.00 | 73 | 1012.6 |
| 20260507123537 | 41 | 231 | 0.0 | 0.0 | 0.00 | 0.30 | 0.00 | 74 | 1012.6 |
| 20260507123010 | 40 | 282 | 0.0 | 0.0 | 0.00 | 0.30 | 0.00 | 73 | 1012.5 |
| 20260507122527 | 40 | 302 | 0.0 | 1.0 | 0.00 | 0.30 | 0.00 | 74 | 1012.5 |
| 20260507122044 | 41 | 251 | 0.0 | 1.0 | 0.00 | 0.30 | 0.00 | 74 | 1012.4 |
| 20260507121522 | 40 | 261 | 0.0 | 0.0 | 0.00 | 0.30 | 0.00 | 75 | 1012.4 |
| 20260507121037 | 40 | 259 | 0.0 | 0.0 | 0.00 | 0.30 | 0.00 | 77 | 1012.4 |
| 20260507120555 | 40 | 290 | 0.0 | 0.0 | 0.00 | 0.30 | 0.00 | 76 | 1012.5 |
| 20260507120020 | 40 | 282 | 0.0 | 0.0 | 0.00 | 0.30 | 0.00 | 77 | 1012.5 |
| 20260507115541 | 39 | 251 | 0.0 | 0.0 | 0.00 | 0.39 | 0.00 | 79 | 1012.5 |
| 20260507115059 | 39 | 255 | 0.0 | 0.0 | 0.00 | 0.39 | 0.00 | 77 | 1012.5 |
| 20260507114526 | 39 | 248 | 0.0 | 0.0 | 0.00 | 0.39 | 0.00 | 77 | 1012.3 |
| 20260507114042 | 39 | 257 | 0.0 | 0.0 | 0.00 | 0.39 | 0.00 | 77 | 1012.4 |
| 20260507113558 | 39 | 244 | 0.0 | 0.0 | 0.00 | 0.39 | 0.00 | 78 | 1012.4 |
| 20260507113108 | 39 | 230 | 0.0 | 0.0 | 0.00 | 0.39 | 0.00 | 78 | 1012.4 |
| 20260507112514 | 39 | 245 | 0.0 | 0.0 | 0.00 | 0.39 | 0.00 | 79 | 1012.3 |
| 20260507112038 | 39 | 240 | 0.0 | 0.0 | 0.00 | 0.39 | 0.00 | 80 | 1012.2 |
| 20260507111512 | 38 | 167 | 0.0 | 0.0 | 0.00 | 0.39 | 0.00 | 81 | 1012.1 |
| 20260507111027 | 38 | 136 | 0.0 | 0.0 | 0.00 | 0.39 | 0.00 | 81 | 1012.0 |
| 20260507110545 | 38 | 152 | 0.0 | 0.0 | 0.00 | 0.39 | 0.00 | 81 | 1012.0 |
| 20260507110017 | 38 | 171 | 0.0 | 0.0 | 0.00 | 0.39 | 0.00 | 81 | 1012.1 |
| 20260507105535 | 38 | 171 | 0.0 | 0.0 | 0.00 | 0.43 | 0.00 | 81 | 1012.2 |
| 20260507105050 | 37 | 217 | 0.0 | 0.0 | 0.00 | 0.43 | 0.00 | 81 | 1012.1 |
| 20260507104505 | 37 | 176 | 0.0 | 0.0 | 0.00 | 0.43 | 0.00 | 82 | 1012.2 |
| 20260507104020 | 37 | 217 | 0.0 | 0.0 | 0.00 | 0.43 | 0.00 | 82 | 1012.2 |
| 20260507103538 | 37 | 202 | 0.0 | 0.0 | 0.00 | 0.43 | 0.00 | 84 | 1012.0 |
| 20260507103044 | 36 | 209 | 0.0 | 0.0 | 0.00 | 0.43 | 0.00 | 84 | 1012.1 |
| 20260507102606 | 36 | 199 | 0.0 | 0.0 | 0.00 | 0.43 | 0.00 | 86 | 1012.0 |
| 20260507102126 | 35 | 203 | 0.0 | 0.0 | 0.00 | 0.43 | 0.00 | 87 | 1011.9 |
| 20260507101522 | 35 | 234 | 0.0 | 0.0 | 0.00 | 0.43 | 0.00 | 88 | 1011.8 |
| 20260507101040 | 35 | 212 | 0.0 | 0.0 | 0.00 | 0.43 | 0.00 | 88 | 1011.8 |
| 20260507100557 | 35 | 207 | 0.0 | 0.0 | 0.00 | 0.43 | 0.00 | 88 | 1011.8 |
| 20260507100002 | 35 | 207 | 0.0 | 0.0 | 0.00 | 0.43 | 0.00 | 89 | 1011.8 |
| 20260507095522 | 35 | 264 | 0.0 | 0.0 | 0.00 | 0.45 | 0.00 | 89 | 1011.8 |
| 20260507095036 | 35 | 266 | 0.0 | 0.0 | 0.00 | 0.45 | 0.00 | 89 | 1011.8 |
| 20260507094508 | 35 | 258 | 0.0 | 0.0 | 0.00 | 0.45 | 0.00 | 90 | 1011.7 |
| 20260507094024 | 35 | 138 | 0.0 | 0.0 | 0.00 | 0.45 | 0.00 | 90 | 1011.5 |
| 20260507093541 | 35 | 169 | 0.0 | 0.0 | 0.00 | 0.45 | 0.00 | 90 | 1011.7 |
| 20260507093009 | 35 | 158 | 0.0 | 0.0 | 0.00 | 0.45 | 0.00 | 90 | 1011.7 |
| 20260507092528 | 35 | 209 | 0.0 | 0.0 | 0.00 | 0.45 | 0.00 | 90 | 1011.8 |
| 20260507092043 | 35 | 234 | 0.0 | 0.0 | 0.00 | 0.45 | 0.00 | 90 | 1011.9 |
| 20260507091520 | 35 | 183 | 0.0 | 0.0 | 0.00 | 0.45 | 0.00 | 90 | 1011.8 |
| 20260507091040 | 35 | 258 | 0.0 | 0.0 | 0.00 | 0.45 | 0.00 | 90 | 1012.0 |
| 20260507090553 | 36 | 223 | 0.0 | 0.0 | 0.00 | 0.45 | 0.00 | 90 | 1011.9 |
| 20260507090022 | 36 | 221 | 0.0 | 0.0 | 0.00 | 0.45 | 0.00 | 90 | 1011.9 |
| 20260507085543 | 36 | 209 | 0.0 | 0.0 | 0.00 | 0.49 | 0.00 | 90 | 1012.0 |
| 20260507085058 | 36 | 259 | 0.0 | 0.0 | 0.00 | 0.49 | 0.00 | 89 | 1012.0 |
| 20260507084606 | 36 | 287 | 0.0 | 0.0 | 0.00 | 0.49 | 0.00 | 89 | 1012.0 |
| 20260507084032 | 36 | 278 | 0.0 | 0.0 | 0.00 | 0.49 | 0.00 | 89 | 1012.0 |
| 20260507083550 | 36 | 251 | 0.0 | 0.0 | 0.00 | 0.49 | 0.00 | 89 | 1012.0 |
| 20260507083029 | 36 | 258 | 0.0 | 0.0 | 0.00 | 0.49 | 0.00 | 88 | 1012.0 |
| 20260507082549 | 37 | 279 | 0.0 | 0.0 | 0.00 | 0.49 | 0.00 | 88 | 1012.0 |
| 20260507082102 | 37 | 275 | 0.0 | 0.0 | 0.00 | 0.49 | 0.00 | 89 | 1012.0 |
| 20260507081502 | 37 | 289 | 0.0 | 0.0 | 0.00 | 0.49 | 0.00 | 88 | 1012.0 |
| 20260507081022 | 37 | 289 | 0.0 | 0.0 | 0.00 | 0.49 | 0.00 | 88 | 1011.9 |